sensor_id;sensor_type;location;lat;lon;timestamp;pressure;altitude;pressure_sealevel;temperature;humidity
58473;BME280;44775;51.564;5.460;2022-11-20T00:01:38;101051.84;;;-2.96;100.00
58473;BME280;44775;51.564;5.460;2022-11-20T00:04:03;101045.94;;;-2.99;100.00
58473;BME280;44775;51.564;5.460;2022-11-20T00:06:29;101052.25;;;-3.03;100.00
58473;BME280;44775;51.564;5.460;2022-11-20T00:08:57;101045.94;;;-2.99;100.00
58473;BME280;44775;51.564;5.460;2022-11-20T00:11:24;101046.47;;;-3.10;100.00
58473;BME280;44775;51.564;5.460;2022-11-20T00:13:52;101039.53;;;-3.11;100.00
58473;BME280;44775;51.564;5.460;2022-11-20T00:16:21;101040.56;;;-3.14;100.00
58473;BME280;44775;51.564;5.460;2022-11-20T00:18:47;101047.69;;;-3.17;100.00
58473;BME280;44775;51.564;5.460;2022-11-20T00:21:17;101044.34;;;-3.21;100.00
58473;BME280;44775;51.564;5.460;2022-11-20T00:23:43;101036.69;;;-3.24;100.00
58473;BME280;44775;51.564;5.460;2022-11-20T00:26:11;101041.19;;;-3.27;100.00
58473;BME280;44775;51.564;5.460;2022-11-20T00:28:37;101035.22;;;-3.29;100.00
58473;BME280;44775;51.564;5.460;2022-11-20T00:31:14;101046.59;;;-3.30;100.00
58473;BME280;44775;51.564;5.460;2022-11-20T00:33:41;101045.91;;;-3.34;100.00
58473;BME280;44775;51.564;5.460;2022-11-20T00:36:08;101039.81;;;-3.35;100.00
58473;BME280;44775;51.564;5.460;2022-11-20T00:38:34;101042.56;;;-3.38;100.00
58473;BME280;44775;51.564;5.460;2022-11-20T00:41:02;101040.13;;;-3.41;100.00
58473;BME280;44775;51.564;5.460;2022-11-20T00:43:28;101036.66;;;-3.41;100.00
58473;BME280;44775;51.564;5.460;2022-11-20T00:46:01;101039.22;;;-3.40;100.00
58473;BME280;44775;51.564;5.460;2022-11-20T00:48:27;101034.19;;;-3.44;100.00
58473;BME280;44775;51.564;5.460;2022-11-20T00:50:53;101035.22;;;-3.47;100.00
58473;BME280;44775;51.564;5.460;2022-11-20T00:53:18;101032.66;;;-3.48;100.00
58473;BME280;44775;51.564;5.460;2022-11-20T00:56:02;101033.72;;;-3.52;100.00
58473;BME280;44775;51.564;5.460;2022-11-20T00:58:38;101036.78;;;-3.62;100.00
58473;BME280;44775;51.564;5.460;2022-11-20T01:01:12;101030.09;;;-3.67;100.00
58473;BME280;44775;51.564;5.460;2022-11-20T01:03:43;101036.16;;;-3.67;100.00
58473;BME280;44775;51.564;5.460;2022-11-20T01:08:37;101033.00;;;-3.73;100.00
58473;BME280;44775;51.564;5.460;2022-11-20T01:11:08;101036.34;;;-3.71;100.00
58473;BME280;44775;51.564;5.460;2022-11-20T01:13:34;101035.38;;;-3.69;100.00
58473;BME280;44775;51.564;5.460;2022-11-20T01:16:14;101036.34;;;-3.71;100.00
58473;BME280;44775;51.564;5.460;2022-11-20T01:18:42;101039.84;;;-3.71;100.00
58473;BME280;44775;51.564;5.460;2022-11-20T01:21:10;101037.22;;;-3.71;100.00
58473;BME280;44775;51.564;5.460;2022-11-20T01:23:38;101032.16;;;-3.74;100.00
58473;BME280;44775;51.564;5.460;2022-11-20T01:26:06;101033.03;;;-3.75;100.00
58473;BME280;44775;51.564;5.460;2022-11-20T01:28:32;101030.56;;;-3.78;100.00
58473;BME280;44775;51.564;5.460;2022-11-20T01:30:58;101037.78;;;-3.83;100.00
58473;BME280;44775;51.564;5.460;2022-11-20T01:33:24;101033.50;;;-3.84;100.00
58473;BME280;44775;51.564;5.460;2022-11-20T01:35:49;101029.25;;;-3.87;100.00
58473;BME280;44775;51.564;5.460;2022-11-20T01:38:15;101028.56;;;-3.90;100.00
58473;BME280;44775;51.564;5.460;2022-11-20T01:40:41;101032.00;;;-3.90;100.00
58473;BME280;44775;51.564;5.460;2022-11-20T01:43:27;101022.34;;;-3.88;100.00
58473;BME280;44775;51.564;5.460;2022-11-20T01:48:32;101020.09;;;-3.95;100.00
58473;BME280;44775;51.564;5.460;2022-11-20T01:50:59;101021.94;;;-3.97;100.00
58473;BME280;44775;51.564;5.460;2022-11-20T01:53:30;101033.22;;;-3.97;100.00
58473;BME280;44775;51.564;5.460;2022-11-20T01:56:00;101023.72;;;-3.98;100.00
58473;BME280;44775;51.564;5.460;2022-11-20T01:58:30;101020.44;;;-4.03;100.00
58473;BME280;44775;51.564;5.460;2022-11-20T02:00:58;101025.81;;;-4.06;100.00
58473;BME280;44775;51.564;5.460;2022-11-20T02:03:23;101019.09;;;-4.12;100.00
58473;BME280;44775;51.564;5.460;2022-11-20T02:08:31;101025.06;;;-4.08;100.00
58473;BME280;44775;51.564;5.460;2022-11-20T02:10:57;101025.38;;;-4.16;100.00
58473;BME280;44775;51.564;5.460;2022-11-20T02:13:23;101009.81;;;-4.17;100.00
58473;BME280;44775;51.564;5.460;2022-11-20T02:16:30;101013.41;;;-4.20;100.00
58473;BME280;44775;51.564;5.460;2022-11-20T02:18:56;101015.22;;;-4.22;100.00
58473;BME280;44775;51.564;5.460;2022-11-20T02:24:14;101018.41;;;-4.34;100.00
58473;BME280;44775;51.564;5.460;2022-11-20T02:26:50;101014.38;;;-4.41;100.00
58473;BME280;44775;51.564;5.460;2022-11-20T02:29:23;101002.31;;;-4.44;100.00
58473;BME280;44775;51.564;5.460;2022-11-20T02:31:49;100997.31;;;-4.48;100.00
58473;BME280;44775;51.564;5.460;2022-11-20T02:34:14;101010.50;;;-4.52;100.00
58473;BME280;44775;51.564;5.460;2022-11-20T02:36:41;101005.75;;;-4.43;100.00
58473;BME280;44775;51.564;5.460;2022-11-20T02:39:08;101001.38;;;-4.43;100.00
58473;BME280;44775;51.564;5.460;2022-11-20T02:41:36;101006.47;;;-4.40;100.00
58473;BME280;44775;51.564;5.460;2022-11-20T02:44:03;100996.59;;;-4.33;100.00
58473;BME280;44775;51.564;5.460;2022-11-20T02:46:29;100996.06;;;-4.21;100.00
58473;BME280;44775;51.564;5.460;2022-11-20T02:48:55;101002.53;;;-4.11;100.00
58473;BME280;44775;51.564;5.460;2022-11-20T02:51:20;100995.47;;;-4.09;100.00
58473;BME280;44775;51.564;5.460;2022-11-20T02:53:46;100994.13;;;-3.98;100.00
58473;BME280;44775;51.564;5.460;2022-11-20T02:56:11;100994.28;;;-4.01;100.00
58473;BME280;44775;51.564;5.460;2022-11-20T02:58:37;100997.84;;;-3.85;100.00
58473;BME280;44775;51.564;5.460;2022-11-20T03:01:03;100984.19;;;-3.90;100.00
58473;BME280;44775;51.564;5.460;2022-11-20T03:03:28;100994.94;;;-3.79;100.00
58473;BME280;44775;51.564;5.460;2022-11-20T03:05:53;100994.09;;;-3.80;100.00
58473;BME280;44775;51.564;5.460;2022-11-20T03:08:19;100992.28;;;-3.77;100.00
58473;BME280;44775;51.564;5.460;2022-11-20T03:10:44;100995.66;;;-3.75;100.00
58473;BME280;44775;51.564;5.460;2022-11-20T03:13:10;100993.03;;;-3.75;100.00
58473;BME280;44775;51.564;5.460;2022-11-20T03:15:36;101004.31;;;-3.75;100.00
58473;BME280;44775;51.564;5.460;2022-11-20T03:18:02;100997.41;;;-3.76;100.00
58473;BME280;44775;51.564;5.460;2022-11-20T03:20:28;100993.50;;;-3.85;100.00
58473;BME280;44775;51.564;5.460;2022-11-20T03:22:54;100994.47;;;-3.87;100.00
58473;BME280;44775;51.564;5.460;2022-11-20T03:25:20;100995.47;;;-3.90;100.00
58473;BME280;44775;51.564;5.460;2022-11-20T03:27:45;100994.81;;;-3.95;100.00
58473;BME280;44775;51.564;5.460;2022-11-20T03:30:11;100992.38;;;-3.98;100.00
58473;BME280;44775;51.564;5.460;2022-11-20T03:32:37;100988.06;;;-3.99;100.00
58473;BME280;44775;51.564;5.460;2022-11-20T03:35:02;100990.75;;;-4.00;100.00
58473;BME280;44775;51.564;5.460;2022-11-20T03:37:28;100980.69;;;-4.08;100.00
58473;BME280;44775;51.564;5.460;2022-11-20T03:39:53;100981.81;;;-4.14;100.00
58473;BME280;44775;51.564;5.460;2022-11-20T03:42:19;100966.16;;;-4.14;100.00
58473;BME280;44775;51.564;5.460;2022-11-20T03:45:03;100960.97;;;-4.15;100.00
58473;BME280;44775;51.564;5.460;2022-11-20T03:47:29;100970.53;;;-4.14;100.00
58473;BME280;44775;51.564;5.460;2022-11-20T03:49:54;100965.22;;;-4.13;100.00
58473;BME280;44775;51.564;5.460;2022-11-20T03:52:20;100967.78;;;-4.11;100.00
58473;BME280;44775;51.564;5.460;2022-11-20T03:54:45;100961.53;;;-4.09;100.00
58473;BME280;44775;51.564;5.460;2022-11-20T03:57:11;100959.72;;;-4.07;100.00
58473;BME280;44775;51.564;5.460;2022-11-20T03:59:36;100953.38;;;-4.01;100.00
58473;BME280;44775;51.564;5.460;2022-11-20T04:02:01;100956.53;;;-3.94;100.00
58473;BME280;44775;51.564;5.460;2022-11-20T04:04:27;100950.38;;;-3.93;100.00
58473;BME280;44775;51.564;5.460;2022-11-20T04:06:52;100930.88;;;-4.04;100.00
58473;BME280;44775;51.564;5.460;2022-11-20T04:09:18;100940.72;;;-3.91;100.00
58473;BME280;44775;51.564;5.460;2022-11-20T04:11:43;100943.94;;;-3.86;100.00
58473;BME280;44775;51.564;5.460;2022-11-20T04:14:13;100945.78;;;-3.88;100.00
58473;BME280;44775;51.564;5.460;2022-11-20T04:16:40;100946.66;;;-3.88;100.00
58473;BME280;44775;51.564;5.460;2022-11-20T04:19:09;100944.78;;;-3.86;100.00
58473;BME280;44775;51.564;5.460;2022-11-20T04:21:35;100943.81;;;-3.83;100.00
58473;BME280;44775;51.564;5.460;2022-11-20T04:24:01;100948.03;;;-3.81;100.00
58473;BME280;44775;51.564;5.460;2022-11-20T04:26:27;100952.09;;;-3.75;100.00
58473;BME280;44775;51.564;5.460;2022-11-20T04:28:53;100948.72;;;-3.77;100.00
58473;BME280;44775;51.564;5.460;2022-11-20T04:31:21;100956.13;;;-3.68;100.00
58473;BME280;44775;51.564;5.460;2022-11-20T04:33:47;100936.78;;;-3.64;100.00
58473;BME280;44775;51.564;5.460;2022-11-20T04:36:18;100934.75;;;-3.59;100.00
58473;BME280;44775;51.564;5.460;2022-11-20T04:38:45;100936.22;;;-3.53;100.00
58473;BME280;44775;51.564;5.460;2022-11-20T04:41:20;100938.59;;;-3.48;100.00
58473;BME280;44775;51.564;5.460;2022-11-20T04:43:47;100935.09;;;-3.47;100.00
58473;BME280;44775;51.564;5.460;2022-11-20T04:46:14;100941.91;;;-3.45;100.00
58473;BME280;44775;51.564;5.460;2022-11-20T04:48:39;100938.44;;;-3.45;100.00
58473;BME280;44775;51.564;5.460;2022-11-20T04:51:05;100923.84;;;-3.49;100.00
58473;BME280;44775;51.564;5.460;2022-11-20T04:53:31;100938.84;;;-3.36;100.00
58473;BME280;44775;51.564;5.460;2022-11-20T04:56:04;100930.75;;;-3.31;100.00
58473;BME280;44775;51.564;5.460;2022-11-20T04:58:30;100932.53;;;-3.32;100.00
58473;BME280;44775;51.564;5.460;2022-11-20T05:01:03;100929.75;;;-3.28;100.00
58473;BME280;44775;51.564;5.460;2022-11-20T05:03:29;100917.69;;;-3.31;100.00
58473;BME280;44775;51.564;5.460;2022-11-20T05:05:55;100922.91;;;-3.31;100.00
58473;BME280;44775;51.564;5.460;2022-11-20T05:08:20;100917.09;;;-3.36;100.00
58473;BME280;44775;51.564;5.460;2022-11-20T05:10:46;100926.94;;;-3.24;100.00
58473;BME280;44775;51.564;5.460;2022-11-20T05:13:11;100915.00;;;-3.29;100.00
58473;BME280;44775;51.564;5.460;2022-11-20T05:15:36;100914.19;;;-3.30;100.00
58473;BME280;44775;51.564;5.460;2022-11-20T05:18:02;100910.72;;;-3.30;100.00
58473;BME280;44775;51.564;5.460;2022-11-20T05:20:27;100915.00;;;-3.29;100.00
58473;BME280;44775;51.564;5.460;2022-11-20T05:22:56;100906.19;;;-3.27;100.00
58473;BME280;44775;51.564;5.460;2022-11-20T05:25:22;100905.31;;;-3.27;100.00
58473;BME280;44775;51.564;5.460;2022-11-20T05:27:47;100909.69;;;-3.28;100.00
58473;BME280;44775;51.564;5.460;2022-11-20T05:30:13;100900.03;;;-3.26;100.00
58473;BME280;44775;51.564;5.460;2022-11-20T05:32:38;100905.25;;;-3.26;100.00
58473;BME280;44775;51.564;5.460;2022-11-20T05:35:04;100904.31;;;-3.25;100.00
58473;BME280;44775;51.564;5.460;2022-11-20T05:37:29;100898.00;;;-3.21;100.00
58473;BME280;44775;51.564;5.460;2022-11-20T05:39:55;100900.78;;;-3.24;100.00
58473;BME280;44775;51.564;5.460;2022-11-20T05:42:20;100899.56;;;-3.17;100.00
58473;BME280;44775;51.564;5.460;2022-11-20T05:44:56;100898.63;;;-3.16;100.00
58473;BME280;44775;51.564;5.460;2022-11-20T05:47:21;100903.84;;;-3.16;100.00
58473;BME280;44775;51.564;5.460;2022-11-20T05:49:47;100921.91;;;-3.11;100.00
58473;BME280;44775;51.564;5.460;2022-11-20T05:52:12;100921.75;;;-3.08;100.00
58473;BME280;44775;51.564;5.460;2022-11-20T05:54:37;100915.50;;;-3.05;100.00
58473;BME280;44775;51.564;5.460;2022-11-20T05:57:03;100912.81;;;-3.04;100.00
58473;BME280;44775;51.564;5.460;2022-11-20T05:59:28;100924.28;;;-3.06;100.00
58473;BME280;44775;51.564;5.460;2022-11-20T06:01:54;100937.22;;;-3.03;100.00
58473;BME280;44775;51.564;5.460;2022-11-20T06:04:19;100928.19;;;-2.98;100.00
58473;BME280;44775;51.564;5.460;2022-11-20T06:06:45;100933.25;;;-2.95;100.00
58473;BME280;44775;51.564;5.460;2022-11-20T06:09:10;100936.66;;;-2.93;100.00
58473;BME280;44775;51.564;5.460;2022-11-20T06:11:36;100932.09;;;-2.89;100.00
58473;BME280;44775;51.564;5.460;2022-11-20T06:14:01;100928.53;;;-2.88;100.00
58473;BME280;44775;51.564;5.460;2022-11-20T06:16:26;100941.47;;;-2.85;100.00
58473;BME280;44775;51.564;5.460;2022-11-20T06:18:52;100942.16;;;-2.81;100.00
58473;BME280;44775;51.564;5.460;2022-11-20T06:21:19;100942.16;;;-2.81;100.00
58473;BME280;44775;51.564;5.460;2022-11-20T06:23:46;100938.53;;;-2.79;100.00
58473;BME280;44775;51.564;5.460;2022-11-20T06:26:14;100930.91;;;-2.83;100.00
58473;BME280;44775;51.564;5.460;2022-11-20T06:28:41;100932.31;;;-2.76;100.00
58473;BME280;44775;51.564;5.460;2022-11-20T06:31:07;100935.44;;;-2.70;100.00
58473;BME280;44775;51.564;5.460;2022-11-20T06:33:33;100938.06;;;-2.70;100.00
58473;BME280;44775;51.564;5.460;2022-11-20T06:36:00;100942.25;;;-2.67;100.00
58473;BME280;44775;51.564;5.460;2022-11-20T06:38:26;100938.56;;;-2.63;100.00
58473;BME280;44775;51.564;5.460;2022-11-20T06:40:52;100933.41;;;-2.65;100.00
58473;BME280;44775;51.564;5.460;2022-11-20T06:43:18;100929.94;;;-2.65;100.00
58473;BME280;44775;51.564;5.460;2022-11-20T06:45:43;100910.44;;;-2.75;100.00
58473;BME280;44775;51.564;5.460;2022-11-20T06:48:09;100924.63;;;-2.64;100.00
58473;BME280;44775;51.564;5.460;2022-11-20T06:50:36;100916.72;;;-2.62;100.00
58473;BME280;44775;51.564;5.460;2022-11-20T06:53:03;100917.38;;;-2.58;100.00
58473;BME280;44775;51.564;5.460;2022-11-20T06:55:30;100902.63;;;-2.59;100.00
58473;BME280;44775;51.564;5.460;2022-11-20T06:57:55;100910.22;;;-2.55;100.00
58473;BME280;44775;51.564;5.460;2022-11-20T07:00:21;100909.28;;;-2.54;100.00
58473;BME280;44775;51.564;5.460;2022-11-20T07:02:46;100910.97;;;-2.53;100.00
58473;BME280;44775;51.564;5.460;2022-11-20T07:05:12;100917.16;;;-2.38;100.00
58473;BME280;44775;51.564;5.460;2022-11-20T07:07:37;100914.28;;;-2.49;100.00
58473;BME280;44775;51.564;5.460;2022-11-20T07:10:03;100907.50;;;-2.53;100.00
58473;BME280;44775;51.564;5.460;2022-11-20T07:12:29;100918.56;;;-2.48;100.00
58473;BME280;44775;51.564;5.460;2022-11-20T07:14:54;100923.31;;;-2.39;100.00
58473;BME280;44775;51.564;5.460;2022-11-20T07:17:20;100913.59;;;-2.37;100.00
58473;BME280;44775;51.564;5.460;2022-11-20T07:19:45;100921.22;;;-2.32;100.00
58473;BME280;44775;51.564;5.460;2022-11-20T07:22:11;100909.69;;;-2.30;100.00
58473;BME280;44775;51.564;5.460;2022-11-20T07:24:36;100900.59;;;-2.23;100.00
58473;BME280;44775;51.564;5.460;2022-11-20T07:27:02;100905.84;;;-2.23;100.00
58473;BME280;44775;51.564;5.460;2022-11-20T07:29:27;100909.88;;;-2.17;100.00
58473;BME280;44775;51.564;5.460;2022-11-20T07:31:52;100910.03;;;-2.04;100.00
58473;BME280;44775;51.564;5.460;2022-11-20T07:34:18;100901.59;;;-2.09;100.00
58473;BME280;44775;51.564;5.460;2022-11-20T07:36:45;100900.13;;;-1.99;100.00
58473;BME280;44775;51.564;5.460;2022-11-20T07:39:10;100894.88;;;-1.99;100.00
58473;BME280;44775;51.564;5.460;2022-11-20T07:41:35;100900.22;;;-1.85;100.00
58473;BME280;44775;51.564;5.460;2022-11-20T07:44:01;100899.88;;;-1.79;100.00
58473;BME280;44775;51.564;5.460;2022-11-20T07:46:26;100902.94;;;-1.72;100.00
58473;BME280;44775;51.564;5.460;2022-11-20T07:48:52;100893.22;;;-1.70;100.00
58473;BME280;44775;51.564;5.460;2022-11-20T07:51:17;100900.75;;;-1.64;100.00
58473;BME280;44775;51.564;5.460;2022-11-20T07:53:43;100908.44;;;-1.61;100.00
58473;BME280;44775;51.564;5.460;2022-11-20T07:56:08;100910.94;;;-1.59;100.00
58473;BME280;44775;51.564;5.460;2022-11-20T07:58:33;100908.75;;;-1.51;100.00
58473;BME280;44775;51.564;5.460;2022-11-20T08:01:04;100899.75;;;-1.47;100.00
58473;BME280;44775;51.564;5.460;2022-11-20T08:03:30;100907.78;;;-1.50;100.00
58473;BME280;44775;51.564;5.460;2022-11-20T08:05:59;100911.56;;;-1.40;100.00
58473;BME280;44775;51.564;5.460;2022-11-20T08:08:26;100900.13;;;-1.39;100.00
58473;BME280;44775;51.564;5.460;2022-11-20T08:10:51;100908.97;;;-1.26;100.00
58473;BME280;44775;51.564;5.460;2022-11-20T08:13:16;100903.34;;;-1.20;100.00
58473;BME280;44775;51.564;5.460;2022-11-20T08:16:01;100902.72;;;-1.09;100.00
58473;BME280;44775;51.564;5.460;2022-11-20T08:18:26;100903.00;;;-0.99;100.00
58473;BME280;44775;51.564;5.460;2022-11-20T08:20:51;100907.41;;;-0.85;100.00
58473;BME280;44775;51.564;5.460;2022-11-20T08:23:17;100900.19;;;-0.82;100.00
58473;BME280;44775;51.564;5.460;2022-11-20T08:25:42;100898.22;;;-0.78;100.00
58473;BME280;44775;51.564;5.460;2022-11-20T08:28:09;100894.09;;;-0.68;100.00
58473;BME280;44775;51.564;5.460;2022-11-20T08:30:36;100894.34;;;-0.58;100.00
58473;BME280;44775;51.564;5.460;2022-11-20T08:33:08;100892.13;;;-0.50;100.00
58473;BME280;44775;51.564;5.460;2022-11-20T08:35:35;100892.66;;;-0.45;100.00
58473;BME280;44775;51.564;5.460;2022-11-20T08:38:02;100891.50;;;-0.41;100.00
58473;BME280;44775;51.564;5.460;2022-11-20T08:40:28;100901.53;;;-0.33;100.00
58473;BME280;44775;51.564;5.460;2022-11-20T08:42:53;100894.97;;;-0.26;100.00
58473;BME280;44775;51.564;5.460;2022-11-20T08:45:19;100903.38;;;-0.21;100.00
58473;BME280;44775;51.564;5.460;2022-11-20T08:47:45;100907.78;;;-0.21;100.00
58473;BME280;44775;51.564;5.460;2022-11-20T08:50:13;100902.72;;;-0.25;100.00
58473;BME280;44775;51.564;5.460;2022-11-20T08:52:39;100905.31;;;-0.10;100.00
58473;BME280;44775;51.564;5.460;2022-11-20T08:55:05;100902.28;;;-0.04;100.00
58473;BME280;44775;51.564;5.460;2022-11-20T08:57:34;100898.88;;;0.08;100.00
58473;BME280;44775;51.564;5.460;2022-11-20T09:00:00;100896.19;;;0.22;100.00
58473;BME280;44775;51.564;5.460;2022-11-20T09:02:26;100895.47;;;0.20;100.00
58473;BME280;44775;51.564;5.460;2022-11-20T09:04:51;100892.97;;;0.32;100.00
58473;BME280;44775;51.564;5.460;2022-11-20T09:07:18;100887.28;;;0.38;100.00
58473;BME280;44775;51.564;5.460;2022-11-20T09:09:44;100882.03;;;0.51;100.00
58473;BME280;44775;51.564;5.460;2022-11-20T09:12:09;100890.28;;;0.59;100.00
58473;BME280;44775;51.564;5.460;2022-11-20T09:14:34;100897.53;;;0.55;100.00
58473;BME280;44775;51.564;5.460;2022-11-20T09:17:00;100891.22;;;0.58;100.00
58473;BME280;44775;51.564;5.460;2022-11-20T09:19:25;100885.34;;;0.54;100.00
58473;BME280;44775;51.564;5.460;2022-11-20T09:21:51;100877.97;;;0.59;100.00
58473;BME280;44775;51.564;5.460;2022-11-20T09:24:17;100876.16;;;0.60;100.00
58473;BME280;44775;51.564;5.460;2022-11-20T09:26:43;100872.81;;;0.70;100.00
58473;BME280;44775;51.564;5.460;2022-11-20T09:29:08;100877.53;;;0.65;100.00
58473;BME280;44775;51.564;5.460;2022-11-20T09:31:33;100868.28;;;0.73;100.00
58473;BME280;44775;51.564;5.460;2022-11-20T09:33:59;100865.97;;;0.81;100.00
58473;BME280;44775;51.564;5.460;2022-11-20T09:36:24;100860.00;;;0.79;100.00
58473;BME280;44775;51.564;5.460;2022-11-20T09:38:50;100863.03;;;0.85;100.00
58473;BME280;44775;51.564;5.460;2022-11-20T09:44:18;100859.25;;;1.02;100.00
58473;BME280;44775;51.564;5.460;2022-11-20T09:46:53;100846.50;;;1.09;100.00
58473;BME280;44775;51.564;5.460;2022-11-20T09:49:47;100846.56;;;1.20;100.00
58473;BME280;44775;51.564;5.460;2022-11-20T09:54:54;100841.78;;;1.38;100.00
58473;BME280;44775;51.564;5.460;2022-11-20T09:57:23;100842.50;;;1.53;100.00
58473;BME280;44775;51.564;5.460;2022-11-20T09:59:52;100848.00;;;1.74;100.00
58473;BME280;44775;51.564;5.460;2022-11-20T10:04:55;100836.50;;;1.75;100.00
58473;BME280;44775;51.564;5.460;2022-11-20T10:07:37;100831.97;;;1.77;100.00
58473;BME280;44775;51.564;5.460;2022-11-20T10:10:04;100824.44;;;1.83;100.00
58473;BME280;44775;51.564;5.460;2022-11-20T10:15:43;100820.06;;;1.71;100.00
58473;BME280;44775;51.564;5.460;2022-11-20T10:26:21;100799.38;;;1.78;100.00
58473;BME280;44775;51.564;5.460;2022-11-20T10:31:46;100771.31;;;1.89;100.00
58473;BME280;44775;51.564;5.460;2022-11-20T10:34:37;100755.16;;;2.05;100.00
58473;BME280;44775;51.564;5.460;2022-11-20T10:37:19;100753.16;;;2.20;100.00
58473;BME280;44775;51.564;5.460;2022-11-20T10:42:41;100742.13;;;2.15;100.00
58473;BME280;44775;51.564;5.460;2022-11-20T10:47:58;100726.81;;;2.20;100.00
58473;BME280;44775;51.564;5.460;2022-11-20T10:50:30;100726.44;;;2.25;100.00
58473;BME280;44775;51.564;5.460;2022-11-20T10:53:05;100725.97;;;2.31;100.00
58473;BME280;44775;51.564;5.460;2022-11-20T10:55:57;100717.00;;;2.45;100.00
58473;BME280;44775;51.564;5.460;2022-11-20T10:58:45;100710.16;;;2.31;100.00
58473;BME280;44775;51.564;5.460;2022-11-20T11:01:20;100701.03;;;2.24;100.00
58473;BME280;44775;51.564;5.460;2022-11-20T11:03:49;100698.16;;;2.27;100.00
58473;BME280;44775;51.564;5.460;2022-11-20T11:06:34;100698.41;;;2.46;100.00
58473;BME280;44775;51.564;5.460;2022-11-20T11:09:10;100689.28;;;2.39;100.00
58473;BME280;44775;51.564;5.460;2022-11-20T11:11:38;100703.06;;;2.43;100.00
58473;BME280;44775;51.564;5.460;2022-11-20T11:14:10;100697.09;;;2.52;100.00
58473;BME280;44775;51.564;5.460;2022-11-20T11:16:35;100698.16;;;2.38;100.00
58473;BME280;44775;51.564;5.460;2022-11-20T11:19:11;100693.03;;;2.36;100.00
58473;BME280;44775;51.564;5.460;2022-11-20T11:21:38;100692.06;;;2.38;100.00
58473;BME280;44775;51.564;5.460;2022-11-20T11:24:27;100696.03;;;2.43;100.00
58473;BME280;44775;51.564;5.460;2022-11-20T11:27:11;100698.41;;;2.46;100.00
58473;BME280;44775;51.564;5.460;2022-11-20T11:29:37;100696.84;;;2.44;100.00
58473;BME280;44775;51.564;5.460;2022-11-20T11:32:08;100685.81;;;2.27;100.00
58473;BME280;44775;51.564;5.460;2022-11-20T11:34:34;100688.31;;;2.29;100.00
58473;BME280;44775;51.564;5.460;2022-11-20T11:37:01;100690.84;;;2.42;100.00
58473;BME280;44775;51.564;5.460;2022-11-20T11:39:30;100689.06;;;2.42;100.00
58473;BME280;44775;51.564;5.460;2022-11-20T11:41:57;100679.22;;;2.55;100.00
58473;BME280;44775;51.564;5.460;2022-11-20T11:44:33;100678.59;;;2.63;100.00
58473;BME280;44775;51.564;5.460;2022-11-20T11:49:47;100668.69;;;2.44;100.00
58473;BME280;44775;51.564;5.460;2022-11-20T11:52:17;100671.78;;;2.49;100.00
58473;BME280;44775;51.564;5.460;2022-11-20T11:54:56;100667.84;;;2.55;100.00
58473;BME280;44775;51.564;5.460;2022-11-20T11:57:29;100655.25;;;2.47;100.00
58473;BME280;44775;51.564;5.460;2022-11-20T12:00:12;100641.81;;;2.39;100.00
58473;BME280;44775;51.564;5.460;2022-11-20T12:05:38;100615.94;;;2.44;100.00
58473;BME280;44775;51.564;5.460;2022-11-20T12:08:05;100616.19;;;2.41;100.00
58473;BME280;44775;51.564;5.460;2022-11-20T12:10:44;100610.53;;;2.46;100.00
58473;BME280;44775;51.564;5.460;2022-11-20T12:15:43;100594.59;;;2.47;100.00
58473;BME280;44775;51.564;5.460;2022-11-20T12:18:15;100587.38;;;2.49;100.00
58473;BME280;44775;51.564;5.460;2022-11-20T12:20:48;100567.94;;;2.62;100.00
58473;BME280;44775;51.564;5.460;2022-11-20T12:25:54;100561.09;;;2.70;100.00
58473;BME280;44775;51.564;5.460;2022-11-20T12:31:38;100549.41;;;2.73;100.00
58473;BME280;44775;51.564;5.460;2022-11-20T12:39:22;100550.25;;;2.84;100.00
58473;BME280;44775;51.564;5.460;2022-11-20T12:56:50;100509.69;;;3.06;100.00
58473;BME280;44775;51.564;5.460;2022-11-20T12:59:29;100501.00;;;3.16;100.00
58473;BME280;44775;51.564;5.460;2022-11-20T13:02:12;100489.47;;;3.17;100.00
58473;BME280;44775;51.564;5.460;2022-11-20T13:07:42;100477.28;;;3.25;100.00
58473;BME280;44775;51.564;5.460;2022-11-20T13:13:07;100467.72;;;3.24;100.00
58473;BME280;44775;51.564;5.460;2022-11-20T13:18:11;100449.84;;;3.38;100.00
58473;BME280;44775;51.564;5.460;2022-11-20T13:20:42;100452.34;;;3.39;100.00
58473;BME280;44775;51.564;5.460;2022-11-20T13:23:08;100453.91;;;3.42;100.00
58473;BME280;44775;51.564;5.460;2022-11-20T13:25:36;100451.41;;;3.50;100.00
58473;BME280;44775;51.564;5.460;2022-11-20T13:28:28;100441.31;;;3.55;100.00
58473;BME280;44775;51.564;5.460;2022-11-20T13:30:55;100432.91;;;3.50;100.00
58473;BME280;44775;51.564;5.460;2022-11-20T13:33:37;100430.31;;;3.60;100.00
58473;BME280;44775;51.564;5.460;2022-11-20T13:36:21;100424.19;;;3.59;100.00
58473;BME280;44775;51.564;5.460;2022-11-20T13:38:49;100413.50;;;3.61;100.00
58473;BME280;44775;51.564;5.460;2022-11-20T13:41:33;100414.34;;;3.61;100.00
58473;BME280;44775;51.564;5.460;2022-11-20T13:44:10;100418.66;;;3.62;100.00
58473;BME280;44775;51.564;5.460;2022-11-20T13:46:42;100409.91;;;3.62;100.00
58473;BME280;44775;51.564;5.460;2022-11-20T13:49:32;100398.50;;;3.61;100.00
58473;BME280;44775;51.564;5.460;2022-11-20T14:02:40;100383.47;;;3.62;100.00
58473;BME280;44775;51.564;5.460;2022-11-20T14:05:19;100367.63;;;3.62;100.00
58473;BME280;44775;51.564;5.460;2022-11-20T14:07:45;100384.16;;;3.64;100.00
58473;BME280;44775;51.564;5.460;2022-11-20T14:10:24;100384.88;;;3.66;100.00
58473;BME280;44775;51.564;5.460;2022-11-20T14:12:50;100371.22;;;3.61;100.00
58473;BME280;44775;51.564;5.460;2022-11-20T14:15:33;100366.19;;;3.58;100.00
58473;BME280;44775;51.564;5.460;2022-11-20T14:17:59;100349.25;;;3.60;100.00
58473;BME280;44775;51.564;5.460;2022-11-20T14:20:27;100347.69;;;3.58;100.00
58473;BME280;44775;51.564;5.460;2022-11-20T14:22:54;100352.88;;;3.59;100.00